Time;durP1;ratioP1;P1;durP2;ratioP2;P2;SDS_P1;SDS_P2;PMS_P1;PMS_P2;Temp;Humidity;BMP_temperature;BMP_pressure;BME280_temperature;BME280_humidity;BME280_pressure;Samples;Min_cycle;Max_cycle;Signal;HPM_P1;HPM_P2
2023/01/23 05:04:02;;;;;;;11.60;7.20;;;1.80;99.90;;;;;;5996799;22;20238;-64
2023/01/23 05:06:28;;;;;;;8.32;6.45;;;1.80;99.90;;;;;;5017597;28;20211;-62
2023/01/23 05:08:54;;;;;;;11.60;6.67;;;1.80;99.90;;;;;;5013937;28;20178;-64
2023/01/23 05:11:20;;;;;;;11.23;6.00;;;1.80;99.90;;;;;;5015238;28;20179;-66
2023/01/23 05:13:45;;;;;;;8.07;5.80;;;1.80;99.90;;;;;;5014809;28;20337;-64
2023/01/23 05:16:11;;;;;;;7.60;5.17;;;1.80;99.90;;;;;;5015073;28;20192;-64
2023/01/23 05:18:36;;;;;;;7.50;4.40;;;1.80;99.90;;;;;;5014785;28;20183;-65
2023/01/23 05:21:02;;;;;;;13.17;8.13;;;1.80;99.90;;;;;;5015212;28;20170;-65
2023/01/23 05:23:28;;;;;;;7.40;5.03;;;1.80;99.90;;;;;;5014571;28;20193;-64
2023/01/23 05:25:53;;;;;;;8.67;6.20;;;1.80;99.90;;;;;;5014692;28;20199;-65
2023/01/23 05:28:19;;;;;;;9.37;5.20;;;1.80;99.90;;;;;;5015103;28;20181;-65
2023/01/23 05:30:45;;;;;;;8.07;5.90;;;1.80;99.90;;;;;;5014633;28;20182;-64
2023/01/23 05:33:11;;;;;;;8.90;6.40;;;1.80;99.90;;;;;;5013952;28;20686;-66
2023/01/23 05:35:38;;;;;;;8.20;6.50;;;1.80;99.90;;;;;;5013722;28;20437;-65
2023/01/23 05:38:04;;;;;;;8.82;6.05;;;1.80;99.90;;;;;;5014887;28;20775;-65
2023/01/23 05:40:32;;;;;;;9.60;7.57;;;1.90;99.90;;;;;;5014830;28;20185;-65
2023/01/23 05:42:58;;;;;;;9.70;6.30;;;1.90;99.90;;;;;;5012620;28;20272;-64
2023/01/23 05:45:23;;;;;;;7.70;5.57;;;1.90;99.90;;;;;;5014424;28;20229;-64
2023/01/23 05:47:49;;;;;;;9.33;6.57;;;1.90;99.90;;;;;;5014786;28;20182;-64
2023/01/23 05:50:16;;;;;;;8.13;5.50;;;1.90;99.90;;;;;;5014942;28;20658;-63
2023/01/23 05:52:42;;;;;;;7.70;4.85;;;1.80;99.90;;;;;;5014287;28;20628;-63
2023/01/23 05:55:08;;;;;;;9.30;5.70;;;1.80;99.90;;;;;;5013894;28;20256;-64
2023/01/23 05:57:34;;;;;;;12.52;6.60;;;1.80;99.90;;;;;;5014603;28;20225;-64
2023/01/23 06:00:00;;;;;;;10.17;5.80;;;1.80;99.90;;;;;;5014594;28;20633;-65
2023/01/23 06:02:25;;;;;;;11.73;7.10;;;1.80;99.90;;;;;;5006661;28;20258;-61
2023/01/23 06:04:51;;;;;;;9.37;6.23;;;1.80;99.90;;;;;;4999861;28;20200;-64
2023/01/23 06:07:18;;;;;;;6.93;6.20;;;1.80;99.90;;;;;;5006310;28;20460;-62
2023/01/23 06:09:44;;;;;;;7.55;6.35;;;1.80;99.90;;;;;;5014082;28;20198;-64
2023/01/23 06:12:11;;;;;;;8.48;5.65;;;1.90;99.90;;;;;;5013364;28;20218;-62
2023/01/23 06:14:36;;;;;;;9.55;5.43;;;1.90;99.90;;;;;;5013603;28;20210;-64
2023/01/23 06:17:02;;;;;;;7.20;5.53;;;1.90;99.90;;;;;;5014189;28;20183;-63
2023/01/23 06:19:28;;;;;;;6.27;5.40;;;1.90;99.90;;;;;;5013946;28;20775;-64
2023/01/23 06:21:53;;;;;;;10.63;4.93;;;1.80;99.90;;;;;;5014151;28;20171;-65
2023/01/23 06:24:22;;;;;;;8.50;5.20;;;1.80;99.90;;;;;;5013571;28;20198;-69
2023/01/23 06:26:48;;;;;;;7.45;5.85;;;1.80;99.90;;;;;;5011371;28;20254;-62
2023/01/23 06:29:14;;;;;;;6.88;4.70;;;1.90;99.90;;;;;;4996543;28;20171;-62
2023/01/23 06:31:39;;;;;;;6.33;4.37;;;1.90;99.90;;;;;;4994453;28;20510;-63
2023/01/23 06:34:06;;;;;;;8.20;5.10;;;1.90;99.90;;;;;;4995982;28;20293;-63
2023/01/23 06:36:32;;;;;;;8.48;5.95;;;1.90;99.90;;;;;;5021447;28;20193;-63
2023/01/23 06:38:58;;;;;;;5.70;5.20;;;1.90;99.90;;;;;;5019740;28;20208;-65
2023/01/23 06:41:24;;;;;;;10.60;6.78;;;1.90;99.90;;;;;;5012400;28;20177;-64
2023/01/23 06:43:50;;;;;;;7.87;4.93;;;1.90;99.90;;;;;;5005777;28;20195;-64
2023/01/23 06:46:15;;;;;;;7.17;4.87;;;1.90;99.90;;;;;;5012911;28;20195;-64
2023/01/23 06:48:41;;;;;;;9.57;5.97;;;1.90;99.90;;;;;;5013470;28;20171;-64
2023/01/23 06:51:07;;;;;;;6.77;5.80;;;1.90;99.90;;;;;;5018214;28;20632;-64
2023/01/23 06:53:32;;;;;;;9.43;6.43;;;1.90;99.90;;;;;;5012521;28;20959;-64
2023/01/23 06:56:04;;;;;;;10.10;6.77;;;2.00;99.90;;;;;;5009748;28;20171;-66
2023/01/23 06:58:30;;;;;;;7.30;5.93;;;2.00;99.90;;;;;;5011167;28;20186;-65
2023/01/23 07:00:56;;;;;;;10.98;6.38;;;2.00;99.90;;;;;;5022664;28;20245;-66
2023/01/23 07:03:21;;;;;;;6.47;5.30;;;2.00;99.90;;;;;;5016392;28;20265;-65
2023/01/23 07:05:47;;;;;;;10.63;7.20;;;1.90;99.90;;;;;;5032084;28;20224;-65
2023/01/23 07:08:12;;;;;;;7.63;5.00;;;1.90;99.90;;;;;;5029458;28;20174;-65
2023/01/23 07:10:38;;;;;;;11.53;7.80;;;1.90;99.90;;;;;;5014653;28;20648;-65
2023/01/23 07:13:06;;;;;;;10.85;6.68;;;1.90;99.90;;;;;;5018972;28;20197;-66
2023/01/23 07:15:32;;;;;;;10.52;6.70;;;1.90;99.90;;;;;;5024768;28;20194;-65
2023/01/23 07:17:58;;;;;;;7.18;5.70;;;1.90;99.90;;;;;;5017049;28;20166;-65
2023/01/23 07:20:26;;;;;;;10.00;6.38;;;1.90;99.90;;;;;;5030657;28;20208;-66
2023/01/23 07:22:56;;;;;;;8.38;5.60;;;1.90;99.90;;;;;;5018550;28;20176;-66
2023/01/23 07:25:23;;;;;;;10.60;7.82;;;1.90;99.90;;;;;;5024939;28;20277;-66
2023/01/23 07:27:48;;;;;;;8.05;6.72;;;1.90;99.90;;;;;;5020652;28;20544;-66
2023/01/23 07:30:15;;;;;;;8.93;5.93;;;1.90;99.90;;;;;;5014697;28;20171;-65
2023/01/23 07:32:41;;;;;;;11.10;5.72;;;1.90;99.90;;;;;;5035283;28;20543;-65
2023/01/23 07:35:07;;;;;;;10.87;5.97;;;1.90;99.90;;;;;;5020657;28;20217;-65
2023/01/23 07:37:33;;;;;;;9.70;6.00;;;2.00;99.90;;;;;;5027736;28;20258;-65
2023/01/23 07:39:59;;;;;;;11.07;5.85;;;2.00;99.90;;;;;;5016790;28;20255;-66
2023/01/23 07:42:25;;;;;;;7.90;5.93;;;2.00;99.90;;;;;;5019582;28;20602;-64
2023/01/23 07:44:50;;;;;;;6.47;4.90;;;2.00;99.90;;;;;;5023734;28;20198;-63
2023/01/23 07:47:16;;;;;;;10.27;5.73;;;2.00;99.90;;;;;;5022430;28;20217;-64
2023/01/23 07:49:41;;;;;;;9.80;7.07;;;2.00;99.90;;;;;;5022263;28;20265;-65
2023/01/23 07:52:07;;;;;;;7.03;5.07;;;2.00;99.90;;;;;;5003828;28;20669;-64
2023/01/23 07:54:33;;;;;;;11.83;7.40;;;2.00;99.90;;;;;;5017422;28;20210;-65
2023/01/23 07:56:59;;;;;;;7.87;6.13;;;2.00;99.90;;;;;;5015945;28;20471;-65
2023/01/23 07:59:24;;;;;;;10.20;6.47;;;2.10;99.90;;;;;;5018832;28;20220;-65
2023/01/23 08:01:51;;;;;;;7.77;5.53;;;2.10;99.90;;;;;;5010552;28;20171;-65
2023/01/23 08:04:20;;;;;;;9.88;7.07;;;2.10;99.90;;;;;;4999855;28;20332;-65
2023/01/23 08:06:45;;;;;;;8.80;6.25;;;2.10;99.90;;;;;;5026953;28;20247;-65
2023/01/23 08:09:11;;;;;;;12.33;6.30;;;2.10;99.90;;;;;;5016388;28;20260;-65
2023/01/23 08:11:38;;;;;;;10.43;6.50;;;2.20;99.90;;;;;;5034270;28;20182;-63
2023/01/23 08:14:03;;;;;;;6.45;5.50;;;2.20;99.90;;;;;;5013422;28;20571;-65
2023/01/23 08:16:29;;;;;;;8.10;5.93;;;2.20;99.90;;;;;;5015393;28;20175;-65
2023/01/23 08:18:55;;;;;;;10.40;5.13;;;2.10;99.90;;;;;;5016400;28;20943;-63
2023/01/23 08:21:20;;;;;;;9.63;6.43;;;2.10;99.90;;;;;;5020296;28;20194;-65
2023/01/23 08:23:46;;;;;;;8.43;5.70;;;2.10;99.90;;;;;;5021428;28;20285;-64
2023/01/23 08:26:14;;;;;;;12.57;7.60;;;2.10;99.90;;;;;;5019512;28;20191;-66
2023/01/23 08:28:41;;;;;;;13.57;5.28;;;2.10;99.90;;;;;;5016901;28;20451;-65
2023/01/23 08:31:12;;;;;;;9.13;6.25;;;2.10;99.90;;;;;;5022176;28;20529;-65
2023/01/23 08:33:38;;;;;;;8.95;6.75;;;2.10;99.90;;;;;;5015051;28;20194;-65
2023/01/23 08:36:05;;;;;;;9.82;5.13;;;2.10;99.90;;;;;;5032493;28;20177;-64
2023/01/23 08:38:31;;;;;;;9.85;6.75;;;2.10;99.90;;;;;;5030168;28;20571;-64
2023/01/23 08:41:02;;;;;;;12.07;6.73;;;2.10;99.90;;;;;;5035154;28;20203;-64
2023/01/23 08:43:27;;;;;;;10.10;5.05;;;2.10;99.90;;;;;;5019067;28;20178;-64
2023/01/23 08:45:56;;;;;;;9.27;5.63;;;2.10;99.90;;;;;;5015540;28;20224;-63
2023/01/23 08:48:23;;;;;;;7.85;4.57;;;2.10;99.90;;;;;;5016942;28;20448;-63
2023/01/23 08:50:50;;;;;;;7.68;5.57;;;2.20;99.90;;;;;;4995747;28;20180;-64
2023/01/23 08:53:16;;;;;;;12.25;7.30;;;2.30;99.90;;;;;;5021338;28;20210;-64
2023/01/23 08:55:42;;;;;;;7.37;5.40;;;2.40;99.90;;;;;;5028695;28;20532;-64
2023/01/23 08:58:11;;;;;;;9.73;6.63;;;2.40;99.90;;;;;;5024161;28;20427;-66
2023/01/23 09:00:37;;;;;;;11.05;6.22;;;2.50;99.90;;;;;;5034941;28;20437;-63
2023/01/23 09:03:03;;;;;;;8.87;6.90;;;2.60;99.90;;;;;;5002669;28;20339;-64
2023/01/23 09:05:29;;;;;;;7.93;5.27;;;2.70;99.90;;;;;;5032083;28;20448;-64
2023/01/23 09:07:56;;;;;;;10.80;4.93;;;2.80;99.90;;;;;;5033261;28;20214;-63
2023/01/23 09:10:22;;;;;;;9.25;5.22;;;2.90;99.90;;;;;;5020999;28;20262;-63
2023/01/23 09:12:50;;;;;;;6.35;4.60;;;3.10;99.90;;;;;;5013281;28;20698;-64
2023/01/23 09:15:16;;;;;;;6.75;3.88;;;3.10;99.90;;;;;;5009256;28;20210;-65
2023/01/23 09:17:42;;;;;;;5.90;5.23;;;3.20;99.90;;;;;;5014842;28;20171;-63
2023/01/23 09:20:08;;;;;;;7.13;4.77;;;3.10;99.90;;;;;;5023779;28;20624;-64
2023/01/23 09:22:34;;;;;;;7.10;4.07;;;3.00;99.90;;;;;;5026060;28;20253;-64
2023/01/23 09:24:59;;;;;;;5.70;4.23;;;3.00;99.90;;;;;;5021075;28;20292;-64
2023/01/23 09:27:25;;;;;;;7.63;6.00;;;2.90;99.90;;;;;;5023159;28;20254;-65
2023/01/23 09:29:50;;;;;;;6.23;5.10;;;2.90;99.90;;;;;;5013824;28;20615;-64
2023/01/23 09:32:16;;;;;;;6.40;4.30;;;2.80;99.90;;;;;;5015580;28;20183;-64
2023/01/23 09:34:42;;;;;;;6.22;4.38;;;2.80;99.90;;;;;;5021781;28;20210;-62
2023/01/23 09:37:08;;;;;;;4.27;3.50;;;2.70;99.90;;;;;;5034200;28;20216;-63
2023/01/23 09:39:33;;;;;;;4.90;3.37;;;2.70;99.90;;;;;;5033834;28;20201;-64
2023/01/23 09:42:06;;;;;;;6.70;4.60;;;2.60;99.90;;;;;;5015433;28;20445;-63
2023/01/23 09:44:40;;;;;;;5.60;4.55;;;2.60;99.90;;;;;;5020425;28;20683;-63
2023/01/23 09:47:21;;;;;;;7.25;4.80;;;2.60;99.90;;;;;;4994667;28;20266;-63
2023/01/23 09:50:00;;;;;;;4.88;3.85;;;2.60;99.90;;;;;;5014730;28;20189;-63
2023/01/23 09:52:53;;;;;;;6.00;4.13;;;2.60;99.90;;;;;;5028294;28;20185;-63
2023/01/23 09:55:47;;;;;;;6.95;4.13;;;2.60;99.90;;;;;;5023965;28;20244;-64
2023/01/23 09:58:39;;;;;;;7.80;4.32;;;2.60;99.90;;;;;;4993294;28;20668;-63
2023/01/23 10:01:08;;;;;;;5.32;3.95;;;2.60;99.90;;;;;;5001850;28;20201;-63
2023/01/23 10:03:33;;;;;;;6.90;4.32;;;2.60;99.90;;;;;;5011745;28;20182;-64
2023/01/23 10:06:28;;;;;;;9.33;4.90;;;2.60;99.90;;;;;;5029437;28;20197;-62
2023/01/23 10:09:15;;;;;;;6.78;4.90;;;2.70;99.90;;;;;;5007747;28;20198;-63
2023/01/23 10:11:52;;;;;;;5.68;4.60;;;2.70;99.90;;;;;;5002226;28;20190;-64
2023/01/23 10:14:19;;;;;;;9.63;4.05;;;2.80;99.90;;;;;;5014700;28;20696;-64
2023/01/23 10:17:13;;;;;;;5.85;4.47;;;2.90;99.90;;;;;;5019171;28;20202;-63
2023/01/23 10:20:00;;;;;;;6.28;4.40;;;2.90;99.90;;;;;;5014419;28;20166;-63
2023/01/23 10:22:32;;;;;;;7.20;5.20;;;2.90;99.90;;;;;;5015043;28;20201;-63
2023/01/23 10:25:00;;;;;;;6.00;3.80;;;3.00;99.90;;;;;;5021407;28;20625;-63
2023/01/23 10:27:37;;;;;;;8.85;5.10;;;3.10;99.90;;;;;;5005168;28;20262;-63
2023/01/23 10:30:37;;;;;;;4.90;4.40;;;3.10;99.90;;;;;;5016238;28;20236;-63
2023/01/23 10:33:16;;;;;;;5.88;4.50;;;3.10;99.90;;;;;;5029529;28;20186;-63
2023/01/23 10:36:19;;;;;;;5.43;4.57;;;3.20;99.90;;;;;;5002278;28;20274;-63
2023/01/23 10:38:53;;;;;;;5.10;4.43;;;3.20;99.90;;;;;;5012819;28;20178;-63
2023/01/23 10:41:20;;;;;;;6.50;5.90;;;3.10;99.90;;;;;;5016417;28;20186;-66
2023/01/23 10:43:52;;;;;;;5.55;4.72;;;3.20;99.90;;;;;;5005449;28;20492;-65
2023/01/23 10:46:34;;;;;;;4.75;4.15;;;3.20;99.90;;;;;;5024472;28;20189;-65
2023/01/23 10:49:01;;;;;;;8.82;4.53;;;3.40;99.90;;;;;;5021795;28;20712;-66
2023/01/23 10:51:31;;;;;;;4.22;3.83;;;3.50;99.90;;;;;;5017510;28;20187;-64
2023/01/23 10:54:11;;;;;;;5.60;4.35;;;3.50;99.90;;;;;;5016329;28;20202;-68
2023/01/23 10:56:57;;;;;;;6.80;5.45;;;3.50;99.90;;;;;;5011045;28;20233;-67
2023/01/23 10:59:50;;;;;;;6.60;4.75;;;3.40;99.90;;;;;;5016437;28;20192;-67
2023/01/23 11:02:25;;;;;;;7.13;3.90;;;3.30;99.90;;;;;;5009362;28;20181;-73
2023/01/23 11:04:51;;;;;;;3.80;3.00;;;3.20;99.90;;;;;;5018602;28;20276;-66
2023/01/23 11:07:22;;;;;;;7.00;6.27;;;3.30;99.90;;;;;;5023709;28;20627;-63
2023/01/23 11:09:56;;;;;;;4.93;4.00;;;3.20;99.90;;;;;;5013580;28;20258;-65
2023/01/23 11:12:30;;;;;;;5.80;4.55;;;3.30;99.90;;;;;;5020856;28;20179;-63
2023/01/23 11:15:21;;;;;;;5.10;4.05;;;3.30;99.90;;;;;;5012224;28;20202;-63
2023/01/23 11:17:47;;;;;;;9.32;6.60;;;3.40;99.90;;;;;;5015689;28;20216;-63
2023/01/23 11:20:34;;;;;;;8.45;5.82;;;3.50;99.90;;;;;;5021403;28;20206;-62
2023/01/23 11:23:14;;;;;;;6.80;5.22;;;3.60;99.90;;;;;;5022930;28;20582;-64
2023/01/23 11:25:49;;;;;;;8.05;5.00;;;3.70;99.90;;;;;;5010044;28;20199;-64
2023/01/23 11:28:29;;;;;;;8.32;5.35;;;3.70;99.90;;;;;;5019003;28;20683;-64
2023/01/23 11:31:04;;;;;;;13.50;4.68;;;3.70;99.90;;;;;;5017150;28;20188;-64
2023/01/23 11:33:51;;;;;;;7.00;5.30;;;3.70;99.90;;;;;;5014636;28;20194;-63
2023/01/23 11:36:30;;;;;;;7.75;5.05;;;3.80;99.90;;;;;;5024740;28;20175;-64
2023/01/23 11:39:03;;;;;;;7.70;5.55;;;3.80;99.90;;;;;;5014616;28;20253;-63
2023/01/23 11:41:32;;;;;;;6.40;5.75;;;3.60;99.90;;;;;;5013958;28;20649;-64
2023/01/23 11:44:00;;;;;;;10.85;5.55;;;3.50;99.90;;;;;;4993189;28;20566;-64
2023/01/23 11:47:03;;;;;;;8.30;5.53;;;3.50;99.90;;;;;;5011222;28;20189;-64
2023/01/23 11:49:38;;;;;;;9.27;5.25;;;3.40;99.90;;;;;;5009949;28;20175;-64
2023/01/23 11:52:17;;;;;;;5.88;4.20;;;3.40;99.90;;;;;;5021249;28;20628;-63
2023/01/23 11:55:05;;;;;;;11.63;6.80;;;3.50;99.90;;;;;;5032921;28;20237;-62
2023/01/23 11:57:39;;;;;;;7.25;5.25;;;3.50;99.90;;;;;;5015671;28;20191;-64
2023/01/23 12:00:26;;;;;;;9.52;6.20;;;3.50;99.90;;;;;;5029512;28;20171;-63
2023/01/23 12:03:13;;;;;;;9.35;5.15;;;3.40;99.90;;;;;;5019746;28;20166;-63
2023/01/23 12:05:52;;;;;;;8.00;4.65;;;3.40;99.90;;;;;;5006423;28;20334;-61
2023/01/23 12:08:25;;;;;;;7.88;5.38;;;3.40;99.90;;;;;;5006686;28;20170;-62
2023/01/23 12:11:03;;;;;;;7.28;6.15;;;3.30;99.90;;;;;;5023446;28;20174;-64
2023/01/23 12:13:38;;;;;;;7.50;6.00;;;3.20;99.90;;;;;;5016488;28;20211;-62
2023/01/23 12:16:27;;;;;;;8.10;6.57;;;3.20;99.90;;;;;;5036187;28;20184;-63
2023/01/23 12:19:16;;;;;;;8.70;5.35;;;3.20;99.90;;;;;;5031047;28;20257;-61
2023/01/23 12:21:59;;;;;;;9.05;6.22;;;3.20;99.90;;;;;;5018810;28;20183;-63
2023/01/23 12:24:38;;;;;;;7.38;6.18;;;3.30;99.90;;;;;;5014860;28;20226;-63
2023/01/23 12:27:34;;;;;;;10.30;6.30;;;3.30;99.90;;;;;;5034456;28;20188;-64
2023/01/23 12:30:31;;;;;;;8.90;6.30;;;3.50;99.90;;;;;;5018965;28;20186;-66
2023/01/23 12:33:20;;;;;;;5.20;3.72;;;3.60;99.90;;;;;;5015690;28;20644;-63
2023/01/23 12:36:07;;;;;;;11.77;5.88;;;3.80;99.90;;;;;;5013319;28;20213;-64
2023/01/23 12:38:46;;;;;;;7.35;6.38;;;4.10;99.90;;;;;;5034419;28;20174;-62
2023/01/23 12:41:47;;;;;;;7.30;5.38;;;4.20;99.90;;;;;;5016850;28;20179;-69
2023/01/23 12:44:14;;;;;;;8.93;5.53;;;4.30;99.90;;;;;;5022269;28;20191;-64
2023/01/23 12:47:17;;;;;;;7.35;5.63;;;4.40;99.90;;;;;;5012834;28;20648;-65
2023/01/23 12:50:00;;;;;;;7.13;5.25;;;4.40;99.90;;;;;;5013970;28;20229;-65
2023/01/23 12:52:52;;;;;;;8.98;5.18;;;4.40;99.90;;;;;;5025042;28;20265;-63
2023/01/23 12:55:26;;;;;;;5.75;4.68;;;4.40;99.90;;;;;;5026917;28;20203;-62
2023/01/23 12:57:55;;;;;;;6.15;5.45;;;4.40;99.90;;;;;;5022445;28;20527;-62
2023/01/23 13:00:27;;;;;;;8.77;5.18;;;4.40;99.90;;;;;;5020960;28;20176;-63
2023/01/23 13:02:57;;;;;;;7.10;5.40;;;4.40;99.90;;;;;;5021800;28;20171;-63
2023/01/23 13:05:30;;;;;;;5.13;4.47;;;4.30;99.90;;;;;;5020973;28;20219;-62
2023/01/23 13:08:12;;;;;;;5.43;3.92;;;4.30;99.90;;;;;;5021374;28;20664;-65
2023/01/23 13:13:49;;;;;;;5.93;5.03;;;4.40;99.90;;;;;;5014081;28;20210;-65
2023/01/23 13:16:17;;;;;;;9.47;4.80;;;4.40;99.90;;;;;;5014093;28;20189;-65
2023/01/23 13:22:20;;;;;;;7.00;5.53;;;4.60;99.90;;;;;;5014513;28;20187;-63
2023/01/23 13:27:56;;;;;;;6.80;4.63;;;4.70;99.90;;;;;;5014533;28;20186;-65
2023/01/23 13:30:25;;;;;;;6.65;5.38;;;4.70;99.90;;;;;;5022342;28;20658;-65
2023/01/23 13:33:05;;;;;;;6.93;4.57;;;4.70;99.90;;;;;;5014500;28;20177;-65
2023/01/23 13:35:43;;;;;;;5.47;4.30;;;4.60;99.90;;;;;;5013695;28;20203;-65
2023/01/23 13:38:21;;;;;;;6.75;4.35;;;4.50;99.90;;;;;;5014715;28;20187;-64
2023/01/23 13:41:13;;;;;;;8.27;5.93;;;4.50;99.90;;;;;;5022064;28;20232;-65
2023/01/23 13:44:04;;;;;;;6.82;5.18;;;4.40;99.90;;;;;;5006472;28;20190;-73
2023/01/23 13:49:49;;;;;;;7.63;5.05;;;4.50;99.90;;;;;;5009188;28;20221;-61
2023/01/23 13:50:03;;;;;;;6.10;4.45;;;4.60;99.90;;;;;;5006703;28;20752;-63
2023/01/23 13:58:24;;;;;;;5.80;5.03;;;4.70;99.90;;;;;;5011846;28;20310;-63
2023/01/23 14:06:38;;;;;;;8.15;5.53;;;4.70;99.90;;;;;;5014622;28;20610;-63
2023/01/23 14:09:19;;;;;;;8.90;5.75;;;4.70;99.90;;;;;;5014392;28;20173;-62
2023/01/23 14:11:45;;;;;;;7.28;5.60;;;4.60;99.90;;;;;;5014409;28;20186;-63
2023/01/23 14:16:55;;;;;;;6.13;4.07;;;4.60;99.90;;;;;;5014099;28;20205;-64
2023/01/23 14:19:25;;;;;;;8.10;4.65;;;4.50;99.90;;;;;;5013993;28;20167;-64
2023/01/23 14:22:10;;;;;;;7.97;5.18;;;4.40;99.90;;;;;;5014000;28;20258;-62
2023/01/23 14:24:44;;;;;;;5.07;4.25;;;4.30;99.90;;;;;;5013676;28;20648;-65
2023/01/23 14:27:24;;;;;;;11.07;6.85;;;4.30;99.90;;;;;;5014199;28;20189;-62
2023/01/23 14:30:11;;;;;;;5.28;4.75;;;4.20;99.90;;;;;;5013983;28;20163;-64
2023/01/23 14:32:37;;;;;;;7.18;4.45;;;4.10;99.90;;;;;;5013944;28;20182;-62
2023/01/23 14:35:21;;;;;;;8.15;5.35;;;4.10;99.90;;;;;;5013404;28;20684;-63
2023/01/23 14:37:48;;;;;;;7.30;5.40;;;4.10;99.90;;;;;;5013993;28;20179;-61
2023/01/23 14:40:18;;;;;;;8.77;4.90;;;4.00;99.90;;;;;;5013872;28;20550;-64
2023/01/23 14:42:44;;;;;;;6.72;4.63;;;4.00;99.90;;;;;;5012505;28;20171;-60
2023/01/23 14:45:13;;;;;;;8.30;6.80;;;4.00;99.90;;;;;;5013660;28;20191;-60
2023/01/23 14:47:46;;;;;;;5.20;4.70;;;4.00;99.90;;;;;;5013991;28;20424;-60
2023/01/23 14:50:20;;;;;;;7.70;5.45;;;3.90;99.90;;;;;;5013907;28;20556;-60
2023/01/23 14:53:03;;;;;;;4.53;4.15;;;3.90;99.90;;;;;;5013627;28;20563;-60
2023/01/23 14:55:30;;;;;;;6.80;5.45;;;3.90;99.90;;;;;;5013661;28;20298;-60
2023/01/23 14:57:58;;;;;;;8.95;5.72;;;3.90;99.90;;;;;;5013799;28;20270;-61
2023/01/23 15:00:25;;;;;;;6.28;5.68;;;3.90;99.90;;;;;;5014199;28;20163;-61
2023/01/23 15:02:53;;;;;;;5.18;4.45;;;3.90;99.90;;;;;;5013544;28;20648;-60
2023/01/23 15:05:25;;;;;;;9.20;6.03;;;3.90;99.90;;;;;;5013556;28;20214;-60
2023/01/23 15:08:15;;;;;;;5.30;4.78;;;3.90;99.90;;;;;;5013104;28;20171;-61
2023/01/23 15:10:40;;;;;;;6.75;4.38;;;3.80;99.90;;;;;;5013565;28;20574;-61
2023/01/23 15:13:31;;;;;;;7.07;4.97;;;3.80;99.90;;;;;;5013126;28;20240;-63
2023/01/23 15:16:00;;;;;;;6.35;5.40;;;3.80;99.90;;;;;;5010260;28;20195;-61
2023/01/23 15:18:28;;;;;;;10.32;4.95;;;3.70;99.90;;;;;;5013551;28;20572;-60
2023/01/23 15:20:56;;;;;;;5.88;5.13;;;3.70;99.90;;;;;;5013499;28;20210;-61
2023/01/23 15:23:30;;;;;;;9.43;6.30;;;3.70;99.90;;;;;;5011720;28;20587;-65
2023/01/23 15:26:45;;;;;;;6.63;4.72;;;3.70;99.90;;;;;;5016895;28;20183;-61
2023/01/23 15:29:10;;;;;;;5.82;4.85;;;3.60;99.90;;;;;;5002624;28;20191;-61
2023/01/23 15:31:38;;;;;;;7.60;5.97;;;3.60;99.90;;;;;;5006289;28;20579;-61
2023/01/23 15:34:13;;;;;;;7.57;5.47;;;3.60;99.90;;;;;;5004916;28;20211;-59
2023/01/23 15:36:55;;;;;;;6.28;5.57;;;3.60;99.90;;;;;;5007185;28;20167;-61
2023/01/23 15:39:47;;;;;;;7.28;5.03;;;3.60;99.90;;;;;;5002376;28;20275;-61
2023/01/23 15:42:12;;;;;;;6.45;5.85;;;3.50;99.90;;;;;;4997326;28;20183;-60
2023/01/23 15:44:39;;;;;;;10.07;6.90;;;3.50;99.90;;;;;;4996749;28;20196;-61
2023/01/23 15:47:05;;;;;;;8.90;6.28;;;3.50;99.90;;;;;;4997578;28;20254;-60
2023/01/23 15:49:34;;;;;;;6.03;5.43;;;3.50;99.90;;;;;;4997115;28;20228;-62
2023/01/23 15:52:14;;;;;;;6.45;5.03;;;3.50;99.90;;;;;;4997676;28;20178;-62
2023/01/23 15:54:40;;;;;;;8.52;5.88;;;3.50;99.90;;;;;;4996609;28;20215;-61
2023/01/23 15:57:06;;;;;;;7.57;5.60;;;3.50;99.90;;;;;;4997116;28;20171;-62
2023/01/23 15:59:35;;;;;;;8.83;6.03;;;3.40;99.90;;;;;;4997197;28;20176;-63
2023/01/23 16:02:01;;;;;;;8.93;6.93;;;3.40;99.90;;;;;;4997103;28;20219;-62
2023/01/23 16:04:26;;;;;;;8.97;5.80;;;3.40;99.90;;;;;;4996509;28;20192;-62
2023/01/23 16:06:52;;;;;;;7.30;5.90;;;3.40;99.90;;;;;;4996218;28;20189;-62
2023/01/23 16:09:47;;;;;;;8.80;4.90;;;3.40;99.90;;;;;;4996773;28;20203;-62
2023/01/23 16:12:16;;;;;;;6.95;6.20;;;3.40;99.90;;;;;;4994373;28;20187;-62
2023/01/23 16:14:42;;;;;;;8.52;6.60;;;3.40;99.90;;;;;;4996214;28;20215;-61
2023/01/23 16:17:07;;;;;;;7.73;6.00;;;3.40;99.90;;;;;;4996857;28;20634;-61
2023/01/23 16:19:33;;;;;;;7.00;5.47;;;3.40;99.90;;;;;;4996791;28;20571;-62
2023/01/23 16:21:59;;;;;;;9.30;6.13;;;3.40;99.90;;;;;;4996365;28;20179;-62
2023/01/23 16:24:25;;;;;;;7.35;4.88;;;3.40;99.90;;;;;;4994283;28;20242;-63
2023/01/23 16:26:55;;;;;;;10.52;6.38;;;3.40;99.90;;;;;;4993341;28;20689;-61
2023/01/23 16:29:26;;;;;;;11.38;7.18;;;3.40;99.90;;;;;;4994892;28;20760;-62
2023/01/23 16:31:53;;;;;;;10.25;7.15;;;3.40;99.90;;;;;;4995110;28;20190;-60
2023/01/23 16:34:18;;;;;;;8.70;5.93;;;3.40;99.90;;;;;;4994309;28;20207;-61
2023/01/23 16:36:44;;;;;;;7.47;5.83;;;3.40;99.90;;;;;;4993548;28;20365;-61
2023/01/23 16:39:17;;;;;;;5.30;4.90;;;3.50;99.90;;;;;;4996224;28;20207;-61
2023/01/23 16:41:43;;;;;;;8.95;7.45;;;3.50;99.90;;;;;;4996375;28;20211;-62
2023/01/23 16:44:11;;;;;;;9.47;5.83;;;3.50;99.90;;;;;;4996136;28;20230;-63
2023/01/23 16:46:36;;;;;;;12.30;7.78;;;3.50;99.90;;;;;;4996238;28;20446;-62
2023/01/23 16:49:02;;;;;;;7.70;6.87;;;3.50;99.90;;;;;;4996433;28;20176;-62
2023/01/23 16:51:28;;;;;;;8.23;6.10;;;3.50;99.90;;;;;;4996256;28;20175;-61
2023/01/23 16:53:56;;;;;;;11.13;6.60;;;3.50;99.90;;;;;;4995645;28;20708;-61
2023/01/23 16:56:34;;;;;;;6.20;5.35;;;3.40;99.90;;;;;;5008590;28;20174;-61
2023/01/23 16:59:00;;;;;;;8.30;5.55;;;3.50;99.90;;;;;;4999200;28;20179;-62
2023/01/23 17:01:26;;;;;;;5.83;4.50;;;3.50;99.90;;;;;;5005874;28;20178;-62
2023/01/23 17:03:58;;;;;;;7.93;6.03;;;3.50;99.90;;;;;;5014726;28;20445;-62
2023/01/23 17:06:24;;;;;;;9.43;7.45;;;3.50;99.90;;;;;;5014973;28;20197;-62
2023/01/23 17:08:51;;;;;;;9.20;5.43;;;3.50;99.90;;;;;;5015235;28;20171;-65
2023/01/23 17:11:25;;;;;;;9.05;5.63;;;3.50;99.90;;;;;;5013874;28;20183;-65
2023/01/23 17:13:58;;;;;;;10.60;8.15;;;3.50;99.90;;;;;;5013984;28;20256;-64
2023/01/23 17:16:24;;;;;;;8.48;6.32;;;3.50;99.90;;;;;;5015045;28;20179;-63
2023/01/23 17:18:50;;;;;;;9.10;6.30;;;3.50;99.90;;;;;;5014615;28;20227;-63
2023/01/23 17:21:19;;;;;;;7.03;5.30;;;3.50;99.90;;;;;;5014699;28;20178;-65
2023/01/23 17:23:45;;;;;;;8.30;5.90;;;3.50;99.90;;;;;;5014418;28;20410;-64
2023/01/23 17:26:15;;;;;;;9.40;6.60;;;3.50;99.90;;;;;;5013666;28;20178;-63
2023/01/23 17:28:41;;;;;;;6.20;5.28;;;3.50;99.90;;;;;;4999914;28;20182;-67
2023/01/23 17:31:15;;;;;;;9.87;6.83;;;3.50;99.90;;;;;;5013288;28;20663;-65
2023/01/23 17:33:41;;;;;;;8.50;5.88;;;3.50;99.90;;;;;;5001966;28;20675;-68
2023/01/23 17:36:07;;;;;;;7.47;6.50;;;3.50;99.90;;;;;;5002904;28;20214;-66
2023/01/23 17:38:35;;;;;;;8.13;6.60;;;3.50;99.90;;;;;;5010756;28;20171;-63
2023/01/23 17:41:03;;;;;;;7.43;5.63;;;3.60;99.90;;;;;;5014556;28;20490;-67
2023/01/23 17:43:29;;;;;;;11.65;6.60;;;3.60;99.90;;;;;;5014218;28;20259;-65
2023/01/23 17:45:54;;;;;;;7.17;6.20;;;3.60;99.90;;;;;;5014616;28;20246;-68
2023/01/23 17:48:30;;;;;;;11.80;6.10;;;3.60;99.90;;;;;;5014350;28;20181;-66
2023/01/23 17:50:56;;;;;;;7.60;6.32;;;3.60;99.90;;;;;;4997049;28;20225;-65
2023/01/23 17:53:22;;;;;;;8.20;6.68;;;3.70;99.90;;;;;;4994708;28;20641;-67
2023/01/23 17:55:50;;;;;;;8.30;5.68;;;3.60;99.90;;;;;;4994768;28;20226;-65
2023/01/23 17:58:16;;;;;;;8.77;6.53;;;3.70;99.90;;;;;;4994880;28;20233;-66
2023/01/23 18:00:44;;;;;;;8.73;6.00;;;3.70;99.90;;;;;;4994873;28;20210;-63
2023/01/23 18:03:20;;;;;;;6.93;6.20;;;3.60;99.90;;;;;;4994586;28;20180;-65
2023/01/23 18:05:46;;;;;;;8.70;6.72;;;3.70;99.90;;;;;;4994707;28;20286;-65
2023/01/23 18:08:17;;;;;;;7.80;6.20;;;3.70;99.90;;;;;;4994833;28;20607;-64
2023/01/23 18:10:48;;;;;;;8.90;5.70;;;3.70;99.90;;;;;;4994943;28;20171;-63
2023/01/23 18:13:45;;;;;;;9.98;5.97;;;3.60;99.90;;;;;;4994202;28;20172;-65
2023/01/23 18:16:33;;;;;;;11.50;6.35;;;3.70;99.90;;;;;;4991571;28;20183;-66
2023/01/23 18:19:12;;;;;;;8.52;5.57;;;3.70;99.90;;;;;;4994613;28;20177;-65
2023/01/23 18:21:38;;;;;;;5.93;5.32;;;3.70;99.90;;;;;;4994378;28;20526;-62
2023/01/23 18:24:04;;;;;;;7.90;5.70;;;3.70;99.90;;;;;;4994008;28;20271;-64
2023/01/23 18:26:35;;;;;;;7.13;5.43;;;3.70;99.90;;;;;;5006938;28;20487;-64
2023/01/23 18:29:00;;;;;;;9.70;6.60;;;3.60;99.90;;;;;;5013322;28;20516;-64
2023/01/23 18:32:07;;;;;;;8.93;5.80;;;3.60;99.90;;;;;;5014181;28;20205;-66
2023/01/23 18:34:49;;;;;;;10.40;6.60;;;3.60;99.90;;;;;;4972250;28;20723;-64
2023/01/23 18:37:21;;;;;;;8.40;5.93;;;3.60;99.90;;;;;;5011823;28;20268;-64
2023/01/23 18:40:11;;;;;;;6.00;4.72;;;3.70;99.90;;;;;;5013840;28;20167;-67
2023/01/23 18:42:42;;;;;;;9.75;5.63;;;3.60;99.90;;;;;;5013594;28;20176;-64
2023/01/23 18:45:10;;;;;;;10.63;5.90;;;3.70;99.90;;;;;;5013362;28;20314;-64
2023/01/23 18:47:37;;;;;;;10.25;7.07;;;3.70;99.90;;;;;;5013619;28;20175;-64